sensor_id;sensor_type;location;lat;lon;timestamp;P1;durP1;ratioP1;P2;durP2;ratioP2
72920;SDS011;61064;51.654;5.476;2023-04-28T00:00:43;12.57;;;5.47;;
72920;SDS011;61064;51.654;5.476;2023-04-28T00:03:08;11.77;;;4.50;;
72920;SDS011;61064;51.654;5.476;2023-04-28T00:05:34;12.27;;;5.18;;
72920;SDS011;61064;51.654;5.476;2023-04-28T00:07:59;14.97;;;5.67;;
72920;SDS011;61064;51.654;5.476;2023-04-28T00:10:25;11.67;;;5.70;;
72920;SDS011;61064;51.654;5.476;2023-04-28T00:12:50;10.60;;;4.80;;
72920;SDS011;61064;51.654;5.476;2023-04-28T00:15:16;13.93;;;5.27;;
72920;SDS011;61064;51.654;5.476;2023-04-28T00:17:44;11.65;;;5.35;;
72920;SDS011;61064;51.654;5.476;2023-04-28T00:20:09;13.40;;;5.23;;
72920;SDS011;61064;51.654;5.476;2023-04-28T00:22:35;11.55;;;5.10;;
72920;SDS011;61064;51.654;5.476;2023-04-28T00:25:00;12.83;;;5.70;;
72920;SDS011;61064;51.654;5.476;2023-04-28T00:27:26;11.95;;;5.55;;
72920;SDS011;61064;51.654;5.476;2023-04-28T00:29:54;12.77;;;5.50;;
72920;SDS011;61064;51.654;5.476;2023-04-28T00:32:19;11.93;;;5.40;;
72920;SDS011;61064;51.654;5.476;2023-04-28T00:34:45;13.13;;;5.60;;
72920;SDS011;61064;51.654;5.476;2023-04-28T00:37:10;14.83;;;5.27;;
72920;SDS011;61064;51.654;5.476;2023-04-28T00:39:36;14.87;;;5.63;;
72920;SDS011;61064;51.654;5.476;2023-04-28T00:42:01;11.17;;;5.67;;
72920;SDS011;61064;51.654;5.476;2023-04-28T00:44:28;13.75;;;6.10;;
72920;SDS011;61064;51.654;5.476;2023-04-28T00:46:53;13.23;;;6.13;;
72920;SDS011;61064;51.654;5.476;2023-04-28T00:49:19;12.75;;;6.13;;
72920;SDS011;61064;51.654;5.476;2023-04-28T00:51:44;12.40;;;5.90;;
72920;SDS011;61064;51.654;5.476;2023-04-28T00:54:12;12.83;;;5.60;;
72920;SDS011;61064;51.654;5.476;2023-04-28T00:56:38;13.45;;;6.32;;
72920;SDS011;61064;51.654;5.476;2023-04-28T00:59:03;12.17;;;5.83;;
72920;SDS011;61064;51.654;5.476;2023-04-28T01:01:29;14.97;;;6.47;;
72920;SDS011;61064;51.654;5.476;2023-04-28T01:03:56;13.07;;;5.55;;
72920;SDS011;61064;51.654;5.476;2023-04-28T01:06:21;16.30;;;6.87;;
72920;SDS011;61064;51.654;5.476;2023-04-28T01:08:47;16.15;;;6.68;;
72920;SDS011;61064;51.654;5.476;2023-04-28T01:11:14;14.50;;;6.38;;
72920;SDS011;61064;51.654;5.476;2023-04-28T01:13:40;15.70;;;6.10;;
72920;SDS011;61064;51.654;5.476;2023-04-28T01:16:05;13.70;;;5.90;;
72920;SDS011;61064;51.654;5.476;2023-04-28T01:18:31;13.32;;;5.95;;
72920;SDS011;61064;51.654;5.476;2023-04-28T01:20:57;12.30;;;5.53;;
72920;SDS011;61064;51.654;5.476;2023-04-28T01:23:22;14.80;;;5.72;;
72920;SDS011;61064;51.654;5.476;2023-04-28T01:25:47;12.43;;;5.97;;
72920;SDS011;61064;51.654;5.476;2023-04-28T01:28:13;13.30;;;5.83;;
72920;SDS011;61064;51.654;5.476;2023-04-28T01:30:38;12.10;;;5.50;;
72920;SDS011;61064;51.654;5.476;2023-04-28T01:33:04;12.03;;;5.73;;
72920;SDS011;61064;51.654;5.476;2023-04-28T01:35:29;16.17;;;6.40;;
72920;SDS011;61064;51.654;5.476;2023-04-28T01:37:55;12.68;;;5.50;;
72920;SDS011;61064;51.654;5.476;2023-04-28T01:40:20;14.20;;;6.53;;
72920;SDS011;61064;51.654;5.476;2023-04-28T01:42:45;13.57;;;5.80;;
72920;SDS011;61064;51.654;5.476;2023-04-28T01:45:11;13.87;;;5.93;;
72920;SDS011;61064;51.654;5.476;2023-04-28T01:47:36;13.05;;;5.88;;
72920;SDS011;61064;51.654;5.476;2023-04-28T01:50:02;13.20;;;5.73;;
72920;SDS011;61064;51.654;5.476;2023-04-28T01:52:27;14.27;;;6.43;;
72920;SDS011;61064;51.654;5.476;2023-04-28T01:54:53;13.30;;;5.93;;
72920;SDS011;61064;51.654;5.476;2023-04-28T01:57:18;11.85;;;5.45;;
72920;SDS011;61064;51.654;5.476;2023-04-28T01:59:44;11.53;;;5.60;;
72920;SDS011;61064;51.654;5.476;2023-04-28T02:02:10;13.10;;;5.63;;
72920;SDS011;61064;51.654;5.476;2023-04-28T02:04:36;12.33;;;5.23;;
72920;SDS011;61064;51.654;5.476;2023-04-28T02:07:02;13.00;;;6.00;;
72920;SDS011;61064;51.654;5.476;2023-04-28T02:09:31;15.07;;;6.07;;
72920;SDS011;61064;51.654;5.476;2023-04-28T02:11:56;13.77;;;5.70;;
72920;SDS011;61064;51.654;5.476;2023-04-28T02:14:23;14.52;;;5.72;;
72920;SDS011;61064;51.654;5.476;2023-04-28T02:16:49;14.77;;;6.13;;
72920;SDS011;61064;51.654;5.476;2023-04-28T02:19:14;14.57;;;6.07;;
72920;SDS011;61064;51.654;5.476;2023-04-28T02:21:40;13.00;;;6.07;;
72920;SDS011;61064;51.654;5.476;2023-04-28T02:24:06;13.03;;;6.03;;
72920;SDS011;61064;51.654;5.476;2023-04-28T02:26:32;16.35;;;6.35;;
72920;SDS011;61064;51.654;5.476;2023-04-28T02:28:58;14.23;;;6.60;;
72920;SDS011;61064;51.654;5.476;2023-04-28T02:31:23;14.43;;;6.07;;
72920;SDS011;61064;51.654;5.476;2023-04-28T02:33:49;14.53;;;6.50;;
72920;SDS011;61064;51.654;5.476;2023-04-28T02:36:14;14.43;;;6.33;;
72920;SDS011;61064;51.654;5.476;2023-04-28T02:38:39;15.57;;;6.33;;
72920;SDS011;61064;51.654;5.476;2023-04-28T02:41:06;13.10;;;6.05;;
72920;SDS011;61064;51.654;5.476;2023-04-28T02:43:33;14.80;;;6.20;;
72920;SDS011;61064;51.654;5.476;2023-04-28T02:45:59;13.85;;;6.18;;
72920;SDS011;61064;51.654;5.476;2023-04-28T02:48:25;13.77;;;6.22;;
72920;SDS011;61064;51.654;5.476;2023-04-28T02:50:50;16.57;;;6.83;;
72920;SDS011;61064;51.654;5.476;2023-04-28T02:53:17;14.45;;;6.40;;
72920;SDS011;61064;51.654;5.476;2023-04-28T02:55:43;16.90;;;7.05;;
72920;SDS011;61064;51.654;5.476;2023-04-28T02:58:09;14.63;;;6.50;;
72920;SDS011;61064;51.654;5.476;2023-04-28T03:00:34;16.10;;;6.50;;
72920;SDS011;61064;51.654;5.476;2023-04-28T03:02:59;15.57;;;6.70;;
72920;SDS011;61064;51.654;5.476;2023-04-28T03:05:25;13.27;;;6.82;;
72920;SDS011;61064;51.654;5.476;2023-04-28T03:07:51;17.70;;;6.70;;
72920;SDS011;61064;51.654;5.476;2023-04-28T03:10:17;14.30;;;6.68;;
72920;SDS011;61064;51.654;5.476;2023-04-28T03:12:42;15.20;;;6.57;;
72920;SDS011;61064;51.654;5.476;2023-04-28T03:15:07;15.70;;;7.07;;
72920;SDS011;61064;51.654;5.476;2023-04-28T03:17:33;14.03;;;6.70;;
72920;SDS011;61064;51.654;5.476;2023-04-28T03:20:01;16.25;;;7.68;;
72920;SDS011;61064;51.654;5.476;2023-04-28T03:22:26;14.95;;;6.85;;
72920;SDS011;61064;51.654;5.476;2023-04-28T03:24:52;18.20;;;7.53;;
72920;SDS011;61064;51.654;5.476;2023-04-28T03:27:17;16.80;;;7.30;;
72920;SDS011;61064;51.654;5.476;2023-04-28T03:29:43;16.33;;;7.23;;
72920;SDS011;61064;51.654;5.476;2023-04-28T03:32:08;15.20;;;7.23;;
72920;SDS011;61064;51.654;5.476;2023-04-28T03:34:33;16.17;;;7.50;;
72920;SDS011;61064;51.654;5.476;2023-04-28T03:36:59;18.10;;;7.07;;
72920;SDS011;61064;51.654;5.476;2023-04-28T03:39:24;17.43;;;7.40;;
72920;SDS011;61064;51.654;5.476;2023-04-28T03:41:50;14.90;;;7.50;;
72920;SDS011;61064;51.654;5.476;2023-04-28T03:44:15;15.13;;;7.00;;
72920;SDS011;61064;51.654;5.476;2023-04-28T03:46:40;15.93;;;7.57;;
72920;SDS011;61064;51.654;5.476;2023-04-28T03:49:06;20.27;;;8.13;;
72920;SDS011;61064;51.654;5.476;2023-04-28T03:51:31;20.10;;;8.00;;
72920;SDS011;61064;51.654;5.476;2023-04-28T03:53:57;17.63;;;7.93;;
72920;SDS011;61064;51.654;5.476;2023-04-28T03:56:22;18.95;;;7.78;;
72920;SDS011;61064;51.654;5.476;2023-04-28T03:58:48;17.03;;;8.00;;
72920;SDS011;61064;51.654;5.476;2023-04-28T04:01:13;19.80;;;8.07;;
72920;SDS011;61064;51.654;5.476;2023-04-28T04:03:39;17.75;;;8.50;;
72920;SDS011;61064;51.654;5.476;2023-04-28T04:06:04;22.03;;;9.00;;
72920;SDS011;61064;51.654;5.476;2023-04-28T04:08:30;15.32;;;7.97;;
72920;SDS011;61064;51.654;5.476;2023-04-28T04:10:57;19.50;;;8.30;;
72920;SDS011;61064;51.654;5.476;2023-04-28T04:13:22;18.57;;;8.77;;
72920;SDS011;61064;51.654;5.476;2023-04-28T04:15:48;17.52;;;9.05;;
72920;SDS011;61064;51.654;5.476;2023-04-28T04:18:14;19.10;;;8.20;;
72920;SDS011;61064;51.654;5.476;2023-04-28T04:20:40;19.17;;;8.93;;
72920;SDS011;61064;51.654;5.476;2023-04-28T04:23:05;20.13;;;9.20;;
72920;SDS011;61064;51.654;5.476;2023-04-28T04:25:31;17.53;;;9.27;;
72920;SDS011;61064;51.654;5.476;2023-04-28T04:27:56;19.92;;;9.00;;
72920;SDS011;61064;51.654;5.476;2023-04-28T04:30:22;18.80;;;9.10;;
72920;SDS011;61064;51.654;5.476;2023-04-28T04:32:47;19.67;;;9.00;;
72920;SDS011;61064;51.654;5.476;2023-04-28T04:35:13;18.55;;;8.45;;
72920;SDS011;61064;51.654;5.476;2023-04-28T04:37:38;19.57;;;9.40;;
72920;SDS011;61064;51.654;5.476;2023-04-28T04:40:04;19.93;;;9.17;;
72920;SDS011;61064;51.654;5.476;2023-04-28T04:42:30;20.25;;;9.25;;
72920;SDS011;61064;51.654;5.476;2023-04-28T04:44:55;19.67;;;9.43;;
72920;SDS011;61064;51.654;5.476;2023-04-28T04:47:21;16.00;;;9.33;;
72920;SDS011;61064;51.654;5.476;2023-04-28T04:49:47;19.75;;;9.35;;
72920;SDS011;61064;51.654;5.476;2023-04-28T04:52:13;17.83;;;9.17;;
72920;SDS011;61064;51.654;5.476;2023-04-28T04:54:39;20.17;;;9.77;;
72920;SDS011;61064;51.654;5.476;2023-04-28T04:57:04;20.50;;;9.15;;
72920;SDS011;61064;51.654;5.476;2023-04-28T04:59:30;19.10;;;9.30;;
72920;SDS011;61064;51.654;5.476;2023-04-28T05:01:56;18.92;;;9.70;;
72920;SDS011;61064;51.654;5.476;2023-04-28T05:04:21;18.83;;;9.27;;
72920;SDS011;61064;51.654;5.476;2023-04-28T05:06:46;18.70;;;9.33;;
72920;SDS011;61064;51.654;5.476;2023-04-28T05:09:12;20.47;;;9.47;;
72920;SDS011;61064;51.654;5.476;2023-04-28T05:11:37;17.47;;;9.40;;
72920;SDS011;61064;51.654;5.476;2023-04-28T05:14:02;19.33;;;9.33;;
72920;SDS011;61064;51.654;5.476;2023-04-28T05:16:28;18.95;;;9.40;;
72920;SDS011;61064;51.654;5.476;2023-04-28T05:18:53;21.80;;;9.57;;
72920;SDS011;61064;51.654;5.476;2023-04-28T05:21:19;20.30;;;9.33;;
72920;SDS011;61064;51.654;5.476;2023-04-28T05:23:44;20.43;;;10.00;;
72920;SDS011;61064;51.654;5.476;2023-04-28T05:26:10;19.33;;;10.63;;
72920;SDS011;61064;51.654;5.476;2023-04-28T05:28:35;22.03;;;9.73;;
72920;SDS011;61064;51.654;5.476;2023-04-28T05:31:01;18.57;;;9.73;;
72920;SDS011;61064;51.654;5.476;2023-04-28T05:33:26;21.15;;;9.77;;
72920;SDS011;61064;51.654;5.476;2023-04-28T05:35:51;20.23;;;9.63;;
72920;SDS011;61064;51.654;5.476;2023-04-28T05:38:17;20.73;;;9.77;;
72920;SDS011;61064;51.654;5.476;2023-04-28T05:40:42;18.60;;;9.70;;
72920;SDS011;61064;51.654;5.476;2023-04-28T05:43:08;18.30;;;10.00;;
72920;SDS011;61064;51.654;5.476;2023-04-28T05:45:33;22.63;;;10.13;;
72920;SDS011;61064;51.654;5.476;2023-04-28T05:47:59;18.50;;;9.60;;
72920;SDS011;61064;51.654;5.476;2023-04-28T05:50:24;18.70;;;10.00;;
72920;SDS011;61064;51.654;5.476;2023-04-28T05:52:50;17.88;;;9.75;;
72920;SDS011;61064;51.654;5.476;2023-04-28T05:55:15;18.47;;;9.80;;
72920;SDS011;61064;51.654;5.476;2023-04-28T05:57:40;19.20;;;9.60;;
72920;SDS011;61064;51.654;5.476;2023-04-28T06:00:06;17.50;;;9.93;;
72920;SDS011;61064;51.654;5.476;2023-04-28T06:02:32;20.02;;;9.20;;
72920;SDS011;61064;51.654;5.476;2023-04-28T06:04:57;20.20;;;9.87;;
72920;SDS011;61064;51.654;5.476;2023-04-28T06:07:22;18.27;;;9.50;;
72920;SDS011;61064;51.654;5.476;2023-04-28T06:09:48;17.77;;;9.47;;
72920;SDS011;61064;51.654;5.476;2023-04-28T06:12:13;18.88;;;10.00;;
72920;SDS011;61064;51.654;5.476;2023-04-28T06:14:39;17.23;;;9.30;;
72920;SDS011;61064;51.654;5.476;2023-04-28T06:17:04;18.07;;;9.93;;
72920;SDS011;61064;51.654;5.476;2023-04-28T06:19:30;17.00;;;9.70;;
72920;SDS011;61064;51.654;5.476;2023-04-28T06:21:55;18.33;;;9.73;;
72920;SDS011;61064;51.654;5.476;2023-04-28T06:24:21;17.77;;;9.67;;
72920;SDS011;61064;51.654;5.476;2023-04-28T06:26:46;19.20;;;9.57;;
72920;SDS011;61064;51.654;5.476;2023-04-28T06:29:11;18.53;;;9.93;;
72920;SDS011;61064;51.654;5.476;2023-04-28T06:31:37;16.67;;;9.57;;
72920;SDS011;61064;51.654;5.476;2023-04-28T06:34:02;17.10;;;9.10;;
72920;SDS011;61064;51.654;5.476;2023-04-28T06:36:27;18.80;;;10.20;;
72920;SDS011;61064;51.654;5.476;2023-04-28T06:38:53;19.13;;;9.93;;
72920;SDS011;61064;51.654;5.476;2023-04-28T06:41:18;19.57;;;10.20;;
72920;SDS011;61064;51.654;5.476;2023-04-28T06:43:43;17.90;;;9.63;;
72920;SDS011;61064;51.654;5.476;2023-04-28T06:46:09;19.08;;;10.63;;
72920;SDS011;61064;51.654;5.476;2023-04-28T06:48:37;19.48;;;10.20;;
72920;SDS011;61064;51.654;5.476;2023-04-28T06:51:03;20.03;;;10.53;;
72920;SDS011;61064;51.654;5.476;2023-04-28T06:53:28;22.93;;;9.97;;
72920;SDS011;61064;51.654;5.476;2023-04-28T06:55:54;20.17;;;10.23;;
72920;SDS011;61064;51.654;5.476;2023-04-28T06:58:20;19.15;;;10.15;;
72920;SDS011;61064;51.654;5.476;2023-04-28T07:00:46;21.67;;;11.25;;
72920;SDS011;61064;51.654;5.476;2023-04-28T07:03:11;20.97;;;11.07;;
72920;SDS011;61064;51.654;5.476;2023-04-28T07:05:36;20.33;;;10.00;;
72920;SDS011;61064;51.654;5.476;2023-04-28T07:08:02;17.70;;;10.17;;
72920;SDS011;61064;51.654;5.476;2023-04-28T07:10:27;20.50;;;10.57;;
72920;SDS011;61064;51.654;5.476;2023-04-28T07:12:53;20.50;;;10.50;;
72920;SDS011;61064;51.654;5.476;2023-04-28T07:15:18;17.73;;;9.90;;
72920;SDS011;61064;51.654;5.476;2023-04-28T07:17:43;17.63;;;10.33;;
72920;SDS011;61064;51.654;5.476;2023-04-28T07:20:09;21.67;;;10.97;;
72920;SDS011;61064;51.654;5.476;2023-04-28T07:22:35;21.02;;;10.32;;
72920;SDS011;61064;51.654;5.476;2023-04-28T07:25:00;19.93;;;11.13;;
72920;SDS011;61064;51.654;5.476;2023-04-28T07:27:26;19.70;;;11.17;;
72920;SDS011;61064;51.654;5.476;2023-04-28T07:29:51;19.47;;;10.17;;
72920;SDS011;61064;51.654;5.476;2023-04-28T07:32:16;18.90;;;10.50;;
72920;SDS011;61064;51.654;5.476;2023-04-28T07:34:42;21.60;;;10.93;;
72920;SDS011;61064;51.654;5.476;2023-04-28T07:37:07;20.13;;;11.23;;
72920;SDS011;61064;51.654;5.476;2023-04-28T07:39:33;22.10;;;11.10;;
72920;SDS011;61064;51.654;5.476;2023-04-28T07:42:02;20.77;;;11.30;;
72920;SDS011;61064;51.654;5.476;2023-04-28T07:44:28;19.40;;;11.35;;
72920;SDS011;61064;51.654;5.476;2023-04-28T07:46:54;19.70;;;11.88;;
72920;SDS011;61064;51.654;5.476;2023-04-28T07:49:19;19.87;;;11.10;;
72920;SDS011;61064;51.654;5.476;2023-04-28T07:51:45;20.02;;;10.88;;
72920;SDS011;61064;51.654;5.476;2023-04-28T07:54:10;20.10;;;10.97;;
72920;SDS011;61064;51.654;5.476;2023-04-28T07:56:36;18.80;;;11.60;;
72920;SDS011;61064;51.654;5.476;2023-04-28T07:59:01;20.70;;;11.67;;
72920;SDS011;61064;51.654;5.476;2023-04-28T08:01:26;25.65;;;12.20;;
72920;SDS011;61064;51.654;5.476;2023-04-28T08:03:52;21.80;;;11.57;;
72920;SDS011;61064;51.654;5.476;2023-04-28T08:06:17;22.23;;;12.20;;
72920;SDS011;61064;51.654;5.476;2023-04-28T08:08:43;20.48;;;12.13;;
72920;SDS011;61064;51.654;5.476;2023-04-28T08:11:09;21.40;;;11.82;;
72920;SDS011;61064;51.654;5.476;2023-04-28T08:13:35;21.20;;;13.07;;
72920;SDS011;61064;51.654;5.476;2023-04-28T08:16:00;20.43;;;12.10;;
72920;SDS011;61064;51.654;5.476;2023-04-28T08:18:26;21.60;;;12.53;;
72920;SDS011;61064;51.654;5.476;2023-04-28T08:20:51;20.85;;;12.13;;
72920;SDS011;61064;51.654;5.476;2023-04-28T08:23:17;20.70;;;11.53;;
72920;SDS011;61064;51.654;5.476;2023-04-28T08:25:42;18.30;;;10.80;;
72920;SDS011;61064;51.654;5.476;2023-04-28T08:28:07;19.83;;;11.43;;
72920;SDS011;61064;51.654;5.476;2023-04-28T08:30:33;19.27;;;11.50;;
72920;SDS011;61064;51.654;5.476;2023-04-28T08:32:59;17.40;;;11.23;;
72920;SDS011;61064;51.654;5.476;2023-04-28T08:35:24;17.83;;;10.30;;
72920;SDS011;61064;51.654;5.476;2023-04-28T08:37:51;19.15;;;9.88;;
72920;SDS011;61064;51.654;5.476;2023-04-28T08:40:16;21.65;;;11.43;;
72920;SDS011;61064;51.654;5.476;2023-04-28T08:42:42;17.53;;;10.63;;
72920;SDS011;61064;51.654;5.476;2023-04-28T08:45:11;18.65;;;10.98;;
72920;SDS011;61064;51.654;5.476;2023-04-28T08:47:38;17.10;;;10.45;;
72920;SDS011;61064;51.654;5.476;2023-04-28T08:50:10;17.05;;;10.07;;
72920;SDS011;61064;51.654;5.476;2023-04-28T08:52:36;17.02;;;11.00;;
72920;SDS011;61064;51.654;5.476;2023-04-28T08:55:07;16.67;;;10.70;;
72920;SDS011;61064;51.654;5.476;2023-04-28T08:57:48;17.73;;;10.65;;
72920;SDS011;61064;51.654;5.476;2023-04-28T09:00:15;17.77;;;10.82;;
72920;SDS011;61064;51.654;5.476;2023-04-28T09:02:41;18.55;;;11.32;;
72920;SDS011;61064;51.654;5.476;2023-04-28T09:05:10;15.43;;;10.23;;
72920;SDS011;61064;51.654;5.476;2023-04-28T09:07:36;18.92;;;11.13;;
72920;SDS011;61064;51.654;5.476;2023-04-28T09:12:41;17.80;;;10.73;;
72920;SDS011;61064;51.654;5.476;2023-04-28T09:15:06;17.50;;;11.45;;
72920;SDS011;61064;51.654;5.476;2023-04-28T09:17:45;18.43;;;11.30;;
72920;SDS011;61064;51.654;5.476;2023-04-28T09:22:51;21.48;;;12.55;;
72920;SDS011;61064;51.654;5.476;2023-04-28T09:25:18;18.52;;;10.57;;
72920;SDS011;61064;51.654;5.476;2023-04-28T09:27:46;17.17;;;10.73;;
72920;SDS011;61064;51.654;5.476;2023-04-28T09:30:11;17.47;;;10.83;;
72920;SDS011;61064;51.654;5.476;2023-04-28T09:32:37;18.60;;;11.20;;
72920;SDS011;61064;51.654;5.476;2023-04-28T09:35:02;18.27;;;11.15;;
72920;SDS011;61064;51.654;5.476;2023-04-28T09:37:28;19.60;;;11.33;;
72920;SDS011;61064;51.654;5.476;2023-04-28T09:39:55;17.92;;;11.00;;
72920;SDS011;61064;51.654;5.476;2023-04-28T09:45:03;19.83;;;11.50;;
72920;SDS011;61064;51.654;5.476;2023-04-28T09:47:31;19.20;;;10.98;;
72920;SDS011;61064;51.654;5.476;2023-04-28T09:49:59;20.40;;;11.57;;
72920;SDS011;61064;51.654;5.476;2023-04-28T09:52:26;20.95;;;11.35;;
72920;SDS011;61064;51.654;5.476;2023-04-28T09:54:52;20.97;;;12.63;;
72920;SDS011;61064;51.654;5.476;2023-04-28T09:57:18;21.15;;;12.65;;
72920;SDS011;61064;51.654;5.476;2023-04-28T09:59:47;24.88;;;12.85;;
72920;SDS011;61064;51.654;5.476;2023-04-28T10:02:14;24.13;;;13.23;;
72920;SDS011;61064;51.654;5.476;2023-04-28T10:04:43;22.73;;;12.67;;
72920;SDS011;61064;51.654;5.476;2023-04-28T10:07:13;24.70;;;13.32;;
72920;SDS011;61064;51.654;5.476;2023-04-28T10:09:40;21.65;;;12.10;;
72920;SDS011;61064;51.654;5.476;2023-04-28T10:12:12;21.40;;;12.77;;
72920;SDS011;61064;51.654;5.476;2023-04-28T10:14:38;25.15;;;13.07;;
72920;SDS011;61064;51.654;5.476;2023-04-28T10:17:04;22.87;;;12.90;;
72920;SDS011;61064;51.654;5.476;2023-04-28T10:19:31;22.52;;;12.85;;
72920;SDS011;61064;51.654;5.476;2023-04-28T10:27:43;22.08;;;12.43;;
72920;SDS011;61064;51.654;5.476;2023-04-28T10:30:14;24.73;;;13.73;;
72920;SDS011;61064;51.654;5.476;2023-04-28T10:32:43;21.23;;;12.20;;
72920;SDS011;61064;51.654;5.476;2023-04-28T10:43:03;22.57;;;12.40;;
72920;SDS011;61064;51.654;5.476;2023-04-28T10:48:16;21.77;;;12.48;;
72920;SDS011;61064;51.654;5.476;2023-04-28T10:58:35;23.15;;;12.77;;
72920;SDS011;61064;51.654;5.476;2023-04-28T11:03:48;28.00;;;15.32;;
72920;SDS011;61064;51.654;5.476;2023-04-28T11:09:01;27.37;;;14.90;;
72920;SDS011;61064;51.654;5.476;2023-04-28T11:11:36;26.67;;;15.45;;
72920;SDS011;61064;51.654;5.476;2023-04-28T11:16:53;30.00;;;17.08;;
72920;SDS011;61064;51.654;5.476;2023-04-28T11:19:23;32.47;;;17.65;;
72920;SDS011;61064;51.654;5.476;2023-04-28T11:21:58;33.37;;;17.33;;
72920;SDS011;61064;51.654;5.476;2023-04-28T11:24:28;28.73;;;16.35;;
72920;SDS011;61064;51.654;5.476;2023-04-28T11:27:00;27.63;;;16.33;;
72920;SDS011;61064;51.654;5.476;2023-04-28T11:29:33;27.80;;;15.90;;
72920;SDS011;61064;51.654;5.476;2023-04-28T11:32:02;27.77;;;16.27;;
72920;SDS011;61064;51.654;5.476;2023-04-28T11:34:28;27.73;;;15.80;;
72920;SDS011;61064;51.654;5.476;2023-04-28T11:36:54;25.50;;;14.68;;
72920;SDS011;61064;51.654;5.476;2023-04-28T11:39:30;26.35;;;14.88;;
72920;SDS011;61064;51.654;5.476;2023-04-28T11:41:57;27.77;;;15.77;;
72920;SDS011;61064;51.654;5.476;2023-04-28T11:44:24;29.38;;;16.40;;
72920;SDS011;61064;51.654;5.476;2023-04-28T11:46:53;24.52;;;14.70;;
72920;SDS011;61064;51.654;5.476;2023-04-28T11:49:44;24.58;;;14.48;;
72920;SDS011;61064;51.654;5.476;2023-04-28T11:52:11;26.20;;;14.25;;
72920;SDS011;61064;51.654;5.476;2023-04-28T11:54:37;25.30;;;14.93;;
72920;SDS011;61064;51.654;5.476;2023-04-28T11:57:06;27.42;;;15.15;;
72920;SDS011;61064;51.654;5.476;2023-04-28T11:59:45;25.95;;;15.68;;
72920;SDS011;61064;51.654;5.476;2023-04-28T12:02:11;27.20;;;15.50;;
72920;SDS011;61064;51.654;5.476;2023-04-28T12:07:08;25.90;;;15.20;;
72920;SDS011;61064;51.654;5.476;2023-04-28T12:09:38;28.07;;;16.07;;
72920;SDS011;61064;51.654;5.476;2023-04-28T12:12:14;26.30;;;15.68;;
72920;SDS011;61064;51.654;5.476;2023-04-28T12:14:56;27.50;;;16.08;;
72920;SDS011;61064;51.654;5.476;2023-04-28T12:19:49;23.50;;;13.37;;
72920;SDS011;61064;51.654;5.476;2023-04-28T12:22:14;23.77;;;13.75;;
72920;SDS011;61064;51.654;5.476;2023-04-28T12:24:41;21.63;;;12.48;;
72920;SDS011;61064;51.654;5.476;2023-04-28T12:27:15;18.83;;;11.23;;
72920;SDS011;61064;51.654;5.476;2023-04-28T12:29:40;18.63;;;11.00;;
72920;SDS011;61064;51.654;5.476;2023-04-28T12:32:08;15.88;;;8.73;;
72920;SDS011;61064;51.654;5.476;2023-04-28T12:34:35;13.75;;;8.00;;
72920;SDS011;61064;51.654;5.476;2023-04-28T12:37:02;12.50;;;7.10;;
72920;SDS011;61064;51.654;5.476;2023-04-28T12:39:31;9.93;;;5.60;;
72920;SDS011;61064;51.654;5.476;2023-04-28T12:41:58;9.70;;;5.00;;
72920;SDS011;61064;51.654;5.476;2023-04-28T12:44:27;8.88;;;3.85;;
72920;SDS011;61064;51.654;5.476;2023-04-28T12:47:03;7.22;;;3.50;;
72920;SDS011;61064;51.654;5.476;2023-04-28T12:49:30;7.13;;;3.63;;
72920;SDS011;61064;51.654;5.476;2023-04-28T12:51:59;7.00;;;3.00;;
72920;SDS011;61064;51.654;5.476;2023-04-28T12:54:25;7.05;;;3.22;;
72920;SDS011;61064;51.654;5.476;2023-04-28T12:56:51;6.40;;;2.80;;
72920;SDS011;61064;51.654;5.476;2023-04-28T12:59:18;7.15;;;2.85;;
72920;SDS011;61064;51.654;5.476;2023-04-28T13:01:44;6.80;;;2.50;;
72920;SDS011;61064;51.654;5.476;2023-04-28T13:04:09;6.80;;;2.73;;
72920;SDS011;61064;51.654;5.476;2023-04-28T13:06:34;7.20;;;2.93;;
72920;SDS011;61064;51.654;5.476;2023-04-28T13:09:00;7.65;;;2.95;;
72920;SDS011;61064;51.654;5.476;2023-04-28T13:11:33;7.87;;;3.27;;
72920;SDS011;61064;51.654;5.476;2023-04-28T13:14:01;11.18;;;3.47;;
72920;SDS011;61064;51.654;5.476;2023-04-28T13:16:27;7.88;;;3.15;;
72920;SDS011;61064;51.654;5.476;2023-04-28T13:18:54;7.57;;;3.13;;
72920;SDS011;61064;51.654;5.476;2023-04-28T13:21:21;8.65;;;3.28;;
72920;SDS011;61064;51.654;5.476;2023-04-28T13:23:48;7.93;;;3.50;;
72920;SDS011;61064;51.654;5.476;2023-04-28T13:26:13;8.65;;;3.15;;
72920;SDS011;61064;51.654;5.476;2023-04-28T13:28:39;8.83;;;3.80;;
72920;SDS011;61064;51.654;5.476;2023-04-28T13:31:04;9.70;;;3.90;;
72920;SDS011;61064;51.654;5.476;2023-04-28T13:33:33;7.45;;;3.50;;
72920;SDS011;61064;51.654;5.476;2023-04-28T13:35:58;7.53;;;3.73;;
72920;SDS011;61064;51.654;5.476;2023-04-28T13:38:24;8.30;;;3.60;;
72920;SDS011;61064;51.654;5.476;2023-04-28T13:40:51;9.13;;;3.78;;
72920;SDS011;61064;51.654;5.476;2023-04-28T13:43:17;8.15;;;3.90;;
72920;SDS011;61064;51.654;5.476;2023-04-28T13:45:42;8.90;;;4.07;;
72920;SDS011;61064;51.654;5.476;2023-04-28T13:48:07;7.73;;;3.73;;
72920;SDS011;61064;51.654;5.476;2023-04-28T13:50:33;10.53;;;4.37;;
72920;SDS011;61064;51.654;5.476;2023-04-28T13:52:58;9.77;;;4.03;;
72920;SDS011;61064;51.654;5.476;2023-04-28T13:55:23;7.40;;;3.73;;
72920;SDS011;61064;51.654;5.476;2023-04-28T13:57:52;8.73;;;3.90;;
72920;SDS011;61064;51.654;5.476;2023-04-28T14:00:18;9.07;;;3.97;;
72920;SDS011;61064;51.654;5.476;2023-04-28T14:02:48;8.50;;;4.43;;
72920;SDS011;61064;51.654;5.476;2023-04-28T14:05:15;8.73;;;3.72;;
72920;SDS011;61064;51.654;5.476;2023-04-28T14:07:43;8.50;;;3.80;;
72920;SDS011;61064;51.654;5.476;2023-04-28T14:10:09;8.87;;;4.40;;
72920;SDS011;61064;51.654;5.476;2023-04-28T14:12:35;7.82;;;3.85;;
72920;SDS011;61064;51.654;5.476;2023-04-28T14:15:02;7.80;;;4.00;;
72920;SDS011;61064;51.654;5.476;2023-04-28T14:17:28;9.20;;;4.35;;
72920;SDS011;61064;51.654;5.476;2023-04-28T14:19:54;7.95;;;4.75;;
72920;SDS011;61064;51.654;5.476;2023-04-28T14:22:20;10.50;;;4.87;;
72920;SDS011;61064;51.654;5.476;2023-04-28T14:24:45;7.27;;;3.57;;
72920;SDS011;61064;51.654;5.476;2023-04-28T14:27:11;6.60;;;3.33;;
72920;SDS011;61064;51.654;5.476;2023-04-28T14:29:39;7.68;;;3.65;;
72920;SDS011;61064;51.654;5.476;2023-04-28T14:32:06;6.85;;;3.40;;
72920;SDS011;61064;51.654;5.476;2023-04-28T14:34:31;7.97;;;3.93;;
72920;SDS011;61064;51.654;5.476;2023-04-28T14:36:56;8.50;;;4.23;;
72920;SDS011;61064;51.654;5.476;2023-04-28T14:39:22;8.00;;;4.40;;
72920;SDS011;61064;51.654;5.476;2023-04-28T14:41:51;8.45;;;4.10;;
72920;SDS011;61064;51.654;5.476;2023-04-28T14:44:17;8.87;;;4.30;;
72920;SDS011;61064;51.654;5.476;2023-04-28T14:46:42;8.80;;;4.33;;
72920;SDS011;61064;51.654;5.476;2023-04-28T14:49:07;7.82;;;4.00;;
72920;SDS011;61064;51.654;5.476;2023-04-28T14:51:33;8.40;;;4.10;;
72920;SDS011;61064;51.654;5.476;2023-04-28T14:53:59;9.43;;;4.30;;
72920;SDS011;61064;51.654;5.476;2023-04-28T14:56:24;7.53;;;3.92;;
72920;SDS011;61064;51.654;5.476;2023-04-28T14:58:50;8.47;;;4.17;;
72920;SDS011;61064;51.654;5.476;2023-04-28T15:01:16;8.18;;;3.90;;
72920;SDS011;61064;51.654;5.476;2023-04-28T15:03:42;9.00;;;3.73;;
72920;SDS011;61064;51.654;5.476;2023-04-28T15:06:07;8.25;;;3.90;;
72920;SDS011;61064;51.654;5.476;2023-04-28T15:08:33;9.33;;;4.00;;
72920;SDS011;61064;51.654;5.476;2023-04-28T15:10:58;11.33;;;4.60;;